sensor_id;sensor_type;location;lat;lon;timestamp;temperature;humidity
33023;DHT22;19390;51.460;5.710;2022-12-05T00:01:36;2.60;99.90
33023;DHT22;19390;51.460;5.710;2022-12-05T00:04:09;2.60;99.90
33023;DHT22;19390;51.460;5.710;2022-12-05T00:06:37;2.60;99.90
33023;DHT22;19390;51.460;5.710;2022-12-05T00:09:03;2.50;99.90
33023;DHT22;19390;51.460;5.710;2022-12-05T00:11:31;2.60;99.90
33023;DHT22;19390;51.460;5.710;2022-12-05T00:14:00;2.60;99.90
33023;DHT22;19390;51.460;5.710;2022-12-05T00:16:28;2.60;99.90
33023;DHT22;19390;51.460;5.710;2022-12-05T00:18:54;2.60;99.90
33023;DHT22;19390;51.460;5.710;2022-12-05T00:21:24;2.60;99.90
33023;DHT22;19390;51.460;5.710;2022-12-05T00:23:50;2.60;99.90
33023;DHT22;19390;51.460;5.710;2022-12-05T00:26:17;2.60;99.90
33023;DHT22;19390;51.460;5.710;2022-12-05T00:28:43;2.60;99.90
33023;DHT22;19390;51.460;5.710;2022-12-05T00:31:11;2.60;99.90
33023;DHT22;19390;51.460;5.710;2022-12-05T00:33:37;2.60;99.90
33023;DHT22;19390;51.460;5.710;2022-12-05T00:36:07;2.60;99.90
33023;DHT22;19390;51.460;5.710;2022-12-05T00:38:34;2.60;99.90
33023;DHT22;19390;51.460;5.710;2022-12-05T00:41:04;2.60;99.90
33023;DHT22;19390;51.460;5.710;2022-12-05T00:43:31;2.60;99.90
33023;DHT22;19390;51.460;5.710;2022-12-05T00:46:03;2.60;99.90
33023;DHT22;19390;51.460;5.710;2022-12-05T00:48:29;2.60;99.90
33023;DHT22;19390;51.460;5.710;2022-12-05T00:51:01;2.70;99.90
33023;DHT22;19390;51.460;5.710;2022-12-05T00:53:27;2.60;99.90
33023;DHT22;19390;51.460;5.710;2022-12-05T00:55:53;2.70;99.90
33023;DHT22;19390;51.460;5.710;2022-12-05T00:58:18;2.70;99.90
33023;DHT22;19390;51.460;5.710;2022-12-05T01:00:44;2.70;99.90
33023;DHT22;19390;51.460;5.710;2022-12-05T01:03:09;2.70;99.90
33023;DHT22;19390;51.460;5.710;2022-12-05T01:05:35;2.70;99.90
33023;DHT22;19390;51.460;5.710;2022-12-05T01:08:01;2.70;99.90
33023;DHT22;19390;51.460;5.710;2022-12-05T01:10:27;2.70;99.90
33023;DHT22;19390;51.460;5.710;2022-12-05T01:12:52;2.70;99.90
33023;DHT22;19390;51.460;5.710;2022-12-05T01:15:18;2.70;99.90
33023;DHT22;19390;51.460;5.710;2022-12-05T01:17:44;2.70;99.90
33023;DHT22;19390;51.460;5.710;2022-12-05T01:20:09;2.70;99.90
33023;DHT22;19390;51.460;5.710;2022-12-05T01:22:35;2.70;99.90
33023;DHT22;19390;51.460;5.710;2022-12-05T01:25:01;2.70;99.90
33023;DHT22;19390;51.460;5.710;2022-12-05T01:27:27;2.70;99.90
33023;DHT22;19390;51.460;5.710;2022-12-05T01:29:53;2.70;99.90
33023;DHT22;19390;51.460;5.710;2022-12-05T01:32:18;2.80;99.90
33023;DHT22;19390;51.460;5.710;2022-12-05T01:34:44;2.80;99.90
33023;DHT22;19390;51.460;5.710;2022-12-05T01:37:10;2.70;99.90
33023;DHT22;19390;51.460;5.710;2022-12-05T01:39:35;2.80;99.90
33023;DHT22;19390;51.460;5.710;2022-12-05T01:42:03;2.70;99.90
33023;DHT22;19390;51.460;5.710;2022-12-05T01:46:55;2.80;99.90
33023;DHT22;19390;51.460;5.710;2022-12-05T01:49:34;2.80;99.90
33023;DHT22;19390;51.460;5.710;2022-12-05T01:52:05;2.80;99.90
33023;DHT22;19390;51.460;5.710;2022-12-05T01:54:31;2.80;99.90
33023;DHT22;19390;51.460;5.710;2022-12-05T01:57:03;2.80;99.90
33023;DHT22;19390;51.460;5.710;2022-12-05T01:59:34;2.80;99.90
33023;DHT22;19390;51.460;5.710;2022-12-05T02:02:02;2.80;99.90
33023;DHT22;19390;51.460;5.710;2022-12-05T02:04:28;2.80;99.90
33023;DHT22;19390;51.460;5.710;2022-12-05T02:06:54;2.80;99.90
33023;DHT22;19390;51.460;5.710;2022-12-05T02:09:20;2.80;99.90
33023;DHT22;19390;51.460;5.710;2022-12-05T02:11:52;2.90;99.90
33023;DHT22;19390;51.460;5.710;2022-12-05T02:22:44;2.90;99.90
33023;DHT22;19390;51.460;5.710;2022-12-05T02:30:58;2.90;99.90
33023;DHT22;19390;51.460;5.710;2022-12-05T02:36:33;2.90;99.90
33023;DHT22;19390;51.460;5.710;2022-12-05T02:39:17;2.90;99.90
33023;DHT22;19390;51.460;5.710;2022-12-05T02:42:56;2.90;99.90
33023;DHT22;19390;51.460;5.710;2022-12-05T02:44:55;2.90;99.90
33023;DHT22;19390;51.460;5.710;2022-12-05T02:47:25;2.90;99.90
33023;DHT22;19390;51.460;5.710;2022-12-05T02:49:52;2.90;99.90
33023;DHT22;19390;51.460;5.710;2022-12-05T02:52:19;3.00;99.90
33023;DHT22;19390;51.460;5.710;2022-12-05T02:54:48;3.00;99.90
33023;DHT22;19390;51.460;5.710;2022-12-05T02:57:16;3.00;99.90
33023;DHT22;19390;51.460;5.710;2022-12-05T02:59:42;3.00;99.90
33023;DHT22;19390;51.460;5.710;2022-12-05T03:02:19;3.00;99.90
33023;DHT22;19390;51.460;5.710;2022-12-05T03:04:45;3.00;99.90
33023;DHT22;19390;51.460;5.710;2022-12-05T03:07:12;3.00;99.90
33023;DHT22;19390;51.460;5.710;2022-12-05T03:09:52;3.00;99.90
33023;DHT22;19390;51.460;5.710;2022-12-05T03:12:24;3.00;99.90
33023;DHT22;19390;51.460;5.710;2022-12-05T03:15:08;3.00;99.90
33023;DHT22;19390;51.460;5.710;2022-12-05T03:17:40;3.00;99.90
33023;DHT22;19390;51.460;5.710;2022-12-05T03:20:14;3.00;99.90
33023;DHT22;19390;51.460;5.710;2022-12-05T03:25:14;3.00;99.90
33023;DHT22;19390;51.460;5.710;2022-12-05T03:27:52;3.00;99.90
33023;DHT22;19390;51.460;5.710;2022-12-05T03:30:21;3.00;99.90
33023;DHT22;19390;51.460;5.710;2022-12-05T03:32:52;3.10;99.90
33023;DHT22;19390;51.460;5.710;2022-12-05T03:36:01;3.10;99.90
33023;DHT22;19390;51.460;5.710;2022-12-05T03:46:54;3.00;99.90
33023;DHT22;19390;51.460;5.710;2022-12-05T03:49:44;3.00;99.90
33023;DHT22;19390;51.460;5.710;2022-12-05T03:52:19;3.00;99.90
33023;DHT22;19390;51.460;5.710;2022-12-05T03:54:51;3.00;99.90
33023;DHT22;19390;51.460;5.710;2022-12-05T03:57:28;3.00;99.90
33023;DHT22;19390;51.460;5.710;2022-12-05T04:00:00;3.00;99.90
33023;DHT22;19390;51.460;5.710;2022-12-05T04:02:53;3.00;99.90
33023;DHT22;19390;51.460;5.710;2022-12-05T04:06:04;3.10;99.90
33023;DHT22;19390;51.460;5.710;2022-12-05T04:08:25;3.00;99.90
33023;DHT22;19390;51.460;5.710;2022-12-05T04:10:54;3.10;99.90
33023;DHT22;19390;51.460;5.710;2022-12-05T04:13:35;3.10;99.90
33023;DHT22;19390;51.460;5.710;2022-12-05T04:16:16;3.10;99.90
33023;DHT22;19390;51.460;5.710;2022-12-05T04:19:11;3.10;99.90
33023;DHT22;19390;51.460;5.710;2022-12-05T04:21:51;3.10;99.90
33023;DHT22;19390;51.460;5.710;2022-12-05T04:24:22;3.10;99.90
33023;DHT22;19390;51.460;5.710;2022-12-05T04:27:09;3.10;99.90
33023;DHT22;19390;51.460;5.710;2022-12-05T04:29:47;3.10;99.90
33023;DHT22;19390;51.460;5.710;2022-12-05T04:32:17;3.10;99.90
33023;DHT22;19390;51.460;5.710;2022-12-05T04:34:49;3.10;99.90
33023;DHT22;19390;51.460;5.710;2022-12-05T04:37:19;3.10;99.90
33023;DHT22;19390;51.460;5.710;2022-12-05T04:39:57;3.10;99.90
33023;DHT22;19390;51.460;5.710;2022-12-05T04:42:27;3.10;99.90
33023;DHT22;19390;51.460;5.710;2022-12-05T04:44:58;3.10;99.90
33023;DHT22;19390;51.460;5.710;2022-12-05T04:47:28;3.10;99.90
33023;DHT22;19390;51.460;5.710;2022-12-05T04:49:55;3.10;99.90
33023;DHT22;19390;51.460;5.710;2022-12-05T04:52:23;3.10;99.90
33023;DHT22;19390;51.460;5.710;2022-12-05T04:54:53;3.10;99.90
33023;DHT22;19390;51.460;5.710;2022-12-05T04:57:26;3.10;99.90
33023;DHT22;19390;51.460;5.710;2022-12-05T04:59:54;3.10;99.90
33023;DHT22;19390;51.460;5.710;2022-12-05T05:02:49;3.20;99.90
33023;DHT22;19390;51.460;5.710;2022-12-05T05:05:17;3.20;99.90
33023;DHT22;19390;51.460;5.710;2022-12-05T05:07:48;3.20;99.90
33023;DHT22;19390;51.460;5.710;2022-12-05T05:10:21;3.20;99.90
33023;DHT22;19390;51.460;5.710;2022-12-05T05:12:48;3.20;99.90
33023;DHT22;19390;51.460;5.710;2022-12-05T05:15:14;3.20;99.90
33023;DHT22;19390;51.460;5.710;2022-12-05T05:17:40;3.20;99.90
33023;DHT22;19390;51.460;5.710;2022-12-05T05:20:06;3.20;99.90
33023;DHT22;19390;51.460;5.710;2022-12-05T05:22:52;3.20;99.90
33023;DHT22;19390;51.460;5.710;2022-12-05T05:25:18;3.20;99.90
33023;DHT22;19390;51.460;5.710;2022-12-05T05:27:49;3.20;99.90
33023;DHT22;19390;51.460;5.710;2022-12-05T05:30:16;3.20;99.90
33023;DHT22;19390;51.460;5.710;2022-12-05T05:32:41;3.10;99.90
33023;DHT22;19390;51.460;5.710;2022-12-05T05:35:07;3.10;99.90
33023;DHT22;19390;51.460;5.710;2022-12-05T05:37:33;3.10;99.90
33023;DHT22;19390;51.460;5.710;2022-12-05T05:39:59;3.10;99.90
33023;DHT22;19390;51.460;5.710;2022-12-05T05:42:24;3.10;99.90
33023;DHT22;19390;51.460;5.710;2022-12-05T05:44:50;3.10;99.90
33023;DHT22;19390;51.460;5.710;2022-12-05T05:47:16;3.10;99.90
33023;DHT22;19390;51.460;5.710;2022-12-05T05:49:41;3.20;99.90
33023;DHT22;19390;51.460;5.710;2022-12-05T05:52:07;3.20;99.90
33023;DHT22;19390;51.460;5.710;2022-12-05T05:54:32;3.20;99.90
33023;DHT22;19390;51.460;5.710;2022-12-05T05:56:58;3.20;99.90
33023;DHT22;19390;51.460;5.710;2022-12-05T05:59:24;3.20;99.90
33023;DHT22;19390;51.460;5.710;2022-12-05T06:01:49;3.20;99.90
33023;DHT22;19390;51.460;5.710;2022-12-05T06:04:15;3.20;99.90
33023;DHT22;19390;51.460;5.710;2022-12-05T06:06:40;3.20;99.90
33023;DHT22;19390;51.460;5.710;2022-12-05T06:09:07;3.20;99.90
33023;DHT22;19390;51.460;5.710;2022-12-05T06:11:32;3.30;99.90
33023;DHT22;19390;51.460;5.710;2022-12-05T06:13:59;3.30;99.90
33023;DHT22;19390;51.460;5.710;2022-12-05T06:16:28;3.30;99.90
33023;DHT22;19390;51.460;5.710;2022-12-05T06:18:55;3.30;99.90
33023;DHT22;19390;51.460;5.710;2022-12-05T06:21:21;3.30;99.90
33023;DHT22;19390;51.460;5.710;2022-12-05T06:23:47;3.30;99.90
33023;DHT22;19390;51.460;5.710;2022-12-05T06:26:16;3.30;99.90
33023;DHT22;19390;51.460;5.710;2022-12-05T06:28:42;3.40;99.90
33023;DHT22;19390;51.460;5.710;2022-12-05T06:31:17;3.40;99.90
33023;DHT22;19390;51.460;5.710;2022-12-05T06:33:44;3.40;99.90
33023;DHT22;19390;51.460;5.710;2022-12-05T06:36:12;3.40;99.90
33023;DHT22;19390;51.460;5.710;2022-12-05T06:38:39;3.40;99.90
33023;DHT22;19390;51.460;5.710;2022-12-05T06:41:06;3.40;99.90
33023;DHT22;19390;51.460;5.710;2022-12-05T06:43:32;3.40;99.90
33023;DHT22;19390;51.460;5.710;2022-12-05T06:45:58;3.40;99.90
33023;DHT22;19390;51.460;5.710;2022-12-05T06:48:24;3.50;99.90
33023;DHT22;19390;51.460;5.710;2022-12-05T06:50:50;3.40;99.90
33023;DHT22;19390;51.460;5.710;2022-12-05T06:53:18;3.40;99.90
33023;DHT22;19390;51.460;5.710;2022-12-05T06:55:44;3.40;99.90
33023;DHT22;19390;51.460;5.710;2022-12-05T06:58:09;3.40;99.90
33023;DHT22;19390;51.460;5.710;2022-12-05T07:00:35;3.50;99.90
33023;DHT22;19390;51.460;5.710;2022-12-05T07:03:19;3.50;99.90
33023;DHT22;19390;51.460;5.710;2022-12-05T07:05:45;3.50;99.90
33023;DHT22;19390;51.460;5.710;2022-12-05T07:08:10;3.50;99.90
33023;DHT22;19390;51.460;5.710;2022-12-05T07:10:36;3.50;99.90
33023;DHT22;19390;51.460;5.710;2022-12-05T07:13:02;3.50;99.90
33023;DHT22;19390;51.460;5.710;2022-12-05T07:15:27;3.50;99.90
33023;DHT22;19390;51.460;5.710;2022-12-05T07:17:53;3.50;99.90
33023;DHT22;19390;51.460;5.710;2022-12-05T07:20:18;3.50;99.90
33023;DHT22;19390;51.460;5.710;2022-12-05T07:22:44;3.50;99.90
33023;DHT22;19390;51.460;5.710;2022-12-05T07:25:10;3.50;99.90
33023;DHT22;19390;51.460;5.710;2022-12-05T07:27:36;3.50;99.90
33023;DHT22;19390;51.460;5.710;2022-12-05T07:30:04;3.50;99.90
33023;DHT22;19390;51.460;5.710;2022-12-05T07:32:31;3.50;99.90
33023;DHT22;19390;51.460;5.710;2022-12-05T07:34:57;3.50;99.90
33023;DHT22;19390;51.460;5.710;2022-12-05T07:37:23;3.50;99.90
33023;DHT22;19390;51.460;5.710;2022-12-05T07:39:50;3.50;99.90
33023;DHT22;19390;51.460;5.710;2022-12-05T07:42:15;3.50;99.90
33023;DHT22;19390;51.460;5.710;2022-12-05T07:44:41;3.50;99.90
33023;DHT22;19390;51.460;5.710;2022-12-05T07:47:07;3.50;99.90
33023;DHT22;19390;51.460;5.710;2022-12-05T07:49:32;3.50;99.90
33023;DHT22;19390;51.460;5.710;2022-12-05T07:51:58;3.60;99.90
33023;DHT22;19390;51.460;5.710;2022-12-05T07:54:23;3.60;99.90
33023;DHT22;19390;51.460;5.710;2022-12-05T07:56:49;3.60;99.90
33023;DHT22;19390;51.460;5.710;2022-12-05T07:59:15;3.60;99.90
33023;DHT22;19390;51.460;5.710;2022-12-05T08:01:40;3.60;99.90
33023;DHT22;19390;51.460;5.710;2022-12-05T08:04:06;3.50;99.90
33023;DHT22;19390;51.460;5.710;2022-12-05T08:06:33;3.60;99.90
33023;DHT22;19390;51.460;5.710;2022-12-05T08:08:58;3.60;99.90
33023;DHT22;19390;51.460;5.710;2022-12-05T08:11:27;3.60;99.90
33023;DHT22;19390;51.460;5.710;2022-12-05T08:13:53;3.60;99.90
33023;DHT22;19390;51.460;5.710;2022-12-05T08:16:22;3.70;99.90
33023;DHT22;19390;51.460;5.710;2022-12-05T08:18:48;3.70;99.90
33023;DHT22;19390;51.460;5.710;2022-12-05T08:21:18;3.70;99.90
33023;DHT22;19390;51.460;5.710;2022-12-05T08:23:44;3.70;99.90
33023;DHT22;19390;51.460;5.710;2022-12-05T08:26:16;3.70;99.90
33023;DHT22;19390;51.460;5.710;2022-12-05T08:28:42;3.70;99.90
33023;DHT22;19390;51.460;5.710;2022-12-05T08:31:14;3.70;99.90
33023;DHT22;19390;51.460;5.710;2022-12-05T08:33:41;3.70;99.90
33023;DHT22;19390;51.460;5.710;2022-12-05T08:36:09;3.80;99.90
33023;DHT22;19390;51.460;5.710;2022-12-05T08:38:35;3.70;99.90
33023;DHT22;19390;51.460;5.710;2022-12-05T08:41:03;3.70;99.90
33023;DHT22;19390;51.460;5.710;2022-12-05T08:43:29;3.80;99.90
33023;DHT22;19390;51.460;5.710;2022-12-05T08:45:55;3.80;99.90
33023;DHT22;19390;51.460;5.710;2022-12-05T08:48:23;3.80;99.90
33023;DHT22;19390;51.460;5.710;2022-12-05T08:50:49;3.80;99.90
33023;DHT22;19390;51.460;5.710;2022-12-05T08:53:15;3.90;99.90
33023;DHT22;19390;51.460;5.710;2022-12-05T08:55:41;3.90;99.90
33023;DHT22;19390;51.460;5.710;2022-12-05T08:58:07;3.90;99.90
33023;DHT22;19390;51.460;5.710;2022-12-05T09:00:33;3.90;99.90
33023;DHT22;19390;51.460;5.710;2022-12-05T09:02:58;4.00;99.90
33023;DHT22;19390;51.460;5.710;2022-12-05T09:05:25;4.00;99.90
33023;DHT22;19390;51.460;5.710;2022-12-05T09:07:50;3.90;99.90
33023;DHT22;19390;51.460;5.710;2022-12-05T09:10:16;3.90;99.90
33023;DHT22;19390;51.460;5.710;2022-12-05T09:12:42;3.90;99.90
33023;DHT22;19390;51.460;5.710;2022-12-05T09:15:09;4.00;99.90
33023;DHT22;19390;51.460;5.710;2022-12-05T09:17:36;4.00;99.90
33023;DHT22;19390;51.460;5.710;2022-12-05T09:20:03;4.10;99.90
33023;DHT22;19390;51.460;5.710;2022-12-05T09:22:28;4.10;99.90
33023;DHT22;19390;51.460;5.710;2022-12-05T09:24:54;4.10;99.90
33023;DHT22;19390;51.460;5.710;2022-12-05T09:27:20;4.00;99.90
33023;DHT22;19390;51.460;5.710;2022-12-05T09:29:45;4.00;99.90
33023;DHT22;19390;51.460;5.710;2022-12-05T09:32:11;4.10;99.90
33023;DHT22;19390;51.460;5.710;2022-12-05T09:34:37;4.10;99.90
33023;DHT22;19390;51.460;5.710;2022-12-05T09:37:06;4.10;99.90
33023;DHT22;19390;51.460;5.710;2022-12-05T09:39:33;4.20;99.90
33023;DHT22;19390;51.460;5.710;2022-12-05T09:42:31;4.20;99.90
33023;DHT22;19390;51.460;5.710;2022-12-05T09:45:17;4.30;99.90
33023;DHT22;19390;51.460;5.710;2022-12-05T09:48:00;4.20;99.90
33023;DHT22;19390;51.460;5.710;2022-12-05T09:50:33;4.20;99.90
33023;DHT22;19390;51.460;5.710;2022-12-05T09:58:42;4.10;99.90
33023;DHT22;19390;51.460;5.710;2022-12-05T10:01:25;4.00;99.90
33023;DHT22;19390;51.460;5.710;2022-12-05T10:04:02;3.90;99.90
33023;DHT22;19390;51.460;5.710;2022-12-05T10:06:44;4.00;99.90
33023;DHT22;19390;51.460;5.710;2022-12-05T10:17:23;3.90;99.90
33023;DHT22;19390;51.460;5.710;2022-12-05T10:19:50;4.00;99.90
33023;DHT22;19390;51.460;5.710;2022-12-05T10:22:32;3.90;99.90
33023;DHT22;19390;51.460;5.710;2022-12-05T10:25:02;3.80;99.90
33023;DHT22;19390;51.460;5.710;2022-12-05T10:27:37;3.90;99.90
33023;DHT22;19390;51.460;5.710;2022-12-05T10:30:12;3.90;99.90
33023;DHT22;19390;51.460;5.710;2022-12-05T10:33:03;3.90;99.90
33023;DHT22;19390;51.460;5.710;2022-12-05T10:35:32;3.90;99.90
33023;DHT22;19390;51.460;5.710;2022-12-05T10:38:02;3.90;99.90
33023;DHT22;19390;51.460;5.710;2022-12-05T10:40:37;3.90;99.90
33023;DHT22;19390;51.460;5.710;2022-12-05T10:43:08;3.90;99.90
33023;DHT22;19390;51.460;5.710;2022-12-05T10:45:43;4.00;99.90
33023;DHT22;19390;51.460;5.710;2022-12-05T10:48:15;3.80;99.90
33023;DHT22;19390;51.460;5.710;2022-12-05T10:50:42;3.90;99.90
33023;DHT22;19390;51.460;5.710;2022-12-05T10:53:12;3.90;99.90
33023;DHT22;19390;51.460;5.710;2022-12-05T10:55:42;4.00;99.90
33023;DHT22;19390;51.460;5.710;2022-12-05T10:58:12;4.00;99.90
33023;DHT22;19390;51.460;5.710;2022-12-05T11:00:40;3.90;99.90
33023;DHT22;19390;51.460;5.710;2022-12-05T11:03:29;3.90;99.90
33023;DHT22;19390;51.460;5.710;2022-12-05T11:06:01;4.00;99.90
33023;DHT22;19390;51.460;5.710;2022-12-05T11:08:30;3.90;99.90
33023;DHT22;19390;51.460;5.710;2022-12-05T11:11:07;3.80;99.90
33023;DHT22;19390;51.460;5.710;2022-12-05T11:13:53;3.60;99.90
33023;DHT22;19390;51.460;5.710;2022-12-05T11:16:24;3.80;99.90
33023;DHT22;19390;51.460;5.710;2022-12-05T11:18:50;4.00;99.90
33023;DHT22;19390;51.460;5.710;2022-12-05T11:21:17;3.90;99.90
33023;DHT22;19390;51.460;5.710;2022-12-05T11:23:44;3.90;99.90
33023;DHT22;19390;51.460;5.710;2022-12-05T11:26:34;3.80;99.90
33023;DHT22;19390;51.460;5.710;2022-12-05T11:29:02;3.90;99.90
33023;DHT22;19390;51.460;5.710;2022-12-05T11:31:29;4.00;99.90
33023;DHT22;19390;51.460;5.710;2022-12-05T11:34:02;4.00;99.90
33023;DHT22;19390;51.460;5.710;2022-12-05T11:36:36;4.00;99.90
33023;DHT22;19390;51.460;5.710;2022-12-05T11:39:04;4.00;99.90
33023;DHT22;19390;51.460;5.710;2022-12-05T11:50:06;3.50;99.90
33023;DHT22;19390;51.460;5.710;2022-12-05T11:52:46;3.60;99.90
33023;DHT22;19390;51.460;5.710;2022-12-05T11:55:28;3.50;99.90
33023;DHT22;19390;51.460;5.710;2022-12-05T12:17:51;3.80;99.90
33023;DHT22;19390;51.460;5.710;2022-12-05T12:20:41;3.70;99.90
33023;DHT22;19390;51.460;5.710;2022-12-05T12:26:42;3.40;99.90
33023;DHT22;19390;51.460;5.710;2022-12-05T12:32:07;3.70;99.90
33023;DHT22;19390;51.460;5.710;2022-12-05T12:35:06;3.80;99.90
33023;DHT22;19390;51.460;5.710;2022-12-05T12:37:52;4.00;99.90
33023;DHT22;19390;51.460;5.710;2022-12-05T12:47:02;3.70;99.90
33023;DHT22;19390;51.460;5.710;2022-12-05T12:52:20;3.80;99.90
33023;DHT22;19390;51.460;5.710;2022-12-05T12:57:24;3.80;99.90
33023;DHT22;19390;51.460;5.710;2022-12-05T13:00:10;3.90;99.90
33023;DHT22;19390;51.460;5.710;2022-12-05T13:02:45;3.80;99.90
33023;DHT22;19390;51.460;5.710;2022-12-05T13:05:26;3.80;99.90
33023;DHT22;19390;51.460;5.710;2022-12-05T13:08:25;3.90;99.90
33023;DHT22;19390;51.460;5.710;2022-12-05T13:10:53;3.90;99.90
33023;DHT22;19390;51.460;5.710;2022-12-05T13:13:25;4.00;99.90
33023;DHT22;19390;51.460;5.710;2022-12-05T13:15:56;4.00;99.90
33023;DHT22;19390;51.460;5.710;2022-12-05T13:18:23;3.90;99.90
33023;DHT22;19390;51.460;5.710;2022-12-05T13:20:58;3.90;99.90
33023;DHT22;19390;51.460;5.710;2022-12-05T13:23:28;3.90;99.90
33023;DHT22;19390;51.460;5.710;2022-12-05T13:25:58;3.90;99.90
33023;DHT22;19390;51.460;5.710;2022-12-05T13:28:37;3.90;99.90
33023;DHT22;19390;51.460;5.710;2022-12-05T13:31:09;3.90;99.90
33023;DHT22;19390;51.460;5.710;2022-12-05T13:33:44;4.10;99.90
33023;DHT22;19390;51.460;5.710;2022-12-05T13:36:12;4.10;99.90
33023;DHT22;19390;51.460;5.710;2022-12-05T13:39:04;4.20;99.90
33023;DHT22;19390;51.460;5.710;2022-12-05T13:41:53;4.10;99.90
33023;DHT22;19390;51.460;5.710;2022-12-05T13:50:29;4.10;99.90
33023;DHT22;19390;51.460;5.710;2022-12-05T13:53:03;4.10;99.90
33023;DHT22;19390;51.460;5.710;2022-12-05T13:55:32;4.10;99.90
33023;DHT22;19390;51.460;5.710;2022-12-05T13:58:00;4.20;99.90
33023;DHT22;19390;51.460;5.710;2022-12-05T14:00:34;4.10;99.90
33023;DHT22;19390;51.460;5.710;2022-12-05T14:03:04;4.20;99.90
33023;DHT22;19390;51.460;5.710;2022-12-05T14:05:38;4.20;99.90
33023;DHT22;19390;51.460;5.710;2022-12-05T14:15:49;4.10;99.90
33023;DHT22;19390;51.460;5.710;2022-12-05T14:21:08;4.10;99.90
33023;DHT22;19390;51.460;5.710;2022-12-05T14:24:00;4.10;99.90
33023;DHT22;19390;51.460;5.710;2022-12-05T14:29:37;4.20;99.90
33023;DHT22;19390;51.460;5.710;2022-12-05T14:32:30;4.20;99.90
33023;DHT22;19390;51.460;5.710;2022-12-05T14:37:55;4.10;99.90
33023;DHT22;19390;51.460;5.710;2022-12-05T14:50:44;4.20;99.90
33023;DHT22;19390;51.460;5.710;2022-12-05T14:58:41;4.10;99.90
33023;DHT22;19390;51.460;5.710;2022-12-05T15:04:14;4.10;99.90
33023;DHT22;19390;51.460;5.710;2022-12-05T15:06:46;4.20;99.90
33023;DHT22;19390;51.460;5.710;2022-12-05T15:12:32;4.20;99.90
33023;DHT22;19390;51.460;5.710;2022-12-05T15:15:23;4.20;99.90
33023;DHT22;19390;51.460;5.710;2022-12-05T15:18:13;4.20;99.90
33023;DHT22;19390;51.460;5.710;2022-12-05T15:23:41;4.20;99.90
33023;DHT22;19390;51.460;5.710;2022-12-05T15:31:46;4.20;99.90
33023;DHT22;19390;51.460;5.710;2022-12-05T15:34:15;4.20;99.90
33023;DHT22;19390;51.460;5.710;2022-12-05T15:36:47;4.20;99.90
33023;DHT22;19390;51.460;5.710;2022-12-05T15:39:23;4.20;99.90
33023;DHT22;19390;51.460;5.710;2022-12-05T15:41:53;4.20;99.90
33023;DHT22;19390;51.460;5.710;2022-12-05T15:44:20;4.20;99.90
33023;DHT22;19390;51.460;5.710;2022-12-05T15:46:53;4.50;99.90
33023;DHT22;19390;51.460;5.710;2022-12-05T15:49:25;5.40;99.90
33023;DHT22;19390;51.460;5.710;2022-12-05T15:52:00;5.50;99.90
33023;DHT22;19390;51.460;5.710;2022-12-05T15:54:33;5.60;99.90
33023;DHT22;19390;51.460;5.710;2022-12-05T15:57:15;5.20;99.90
33023;DHT22;19390;51.460;5.710;2022-12-05T15:59:50;6.30;99.90
33023;DHT22;19390;51.460;5.710;2022-12-05T16:05:01;5.50;99.90
33023;DHT22;19390;51.460;5.710;2022-12-05T16:07:29;5.20;99.90
33023;DHT22;19390;51.460;5.710;2022-12-05T16:09:57;5.60;99.90
33023;DHT22;19390;51.460;5.710;2022-12-05T16:12:31;5.30;99.90
33023;DHT22;19390;51.460;5.710;2022-12-05T16:15:03;5.10;99.90
33023;DHT22;19390;51.460;5.710;2022-12-05T16:17:40;5.10;99.90
33023;DHT22;19390;51.460;5.710;2022-12-05T16:23:04;4.80;99.90
33023;DHT22;19390;51.460;5.710;2022-12-05T16:25:32;4.60;99.90
33023;DHT22;19390;51.460;5.710;2022-12-05T16:28:11;5.40;99.90
33023;DHT22;19390;51.460;5.710;2022-12-05T16:30:38;5.40;99.90
33023;DHT22;19390;51.460;5.710;2022-12-05T16:33:06;4.90;99.90
33023;DHT22;19390;51.460;5.710;2022-12-05T16:41:02;5.10;99.90
33023;DHT22;19390;51.460;5.710;2022-12-05T16:48:35;4.40;99.90
33023;DHT22;19390;51.460;5.710;2022-12-05T16:53:43;4.50;99.90
33023;DHT22;19390;51.460;5.710;2022-12-05T16:56:31;4.50;99.90
33023;DHT22;19390;51.460;5.710;2022-12-05T16:59:01;4.50;99.90
33023;DHT22;19390;51.460;5.710;2022-12-05T17:01:27;4.40;99.90
33023;DHT22;19390;51.460;5.710;2022-12-05T17:03:54;4.40;99.90
33023;DHT22;19390;51.460;5.710;2022-12-05T17:06:21;4.40;99.90
33023;DHT22;19390;51.460;5.710;2022-12-05T17:08:47;4.40;99.90
33023;DHT22;19390;51.460;5.710;2022-12-05T17:11:24;4.40;99.90
33023;DHT22;19390;51.460;5.710;2022-12-05T17:13:52;4.40;99.90
33023;DHT22;19390;51.460;5.710;2022-12-05T17:16:18;4.40;99.90
33023;DHT22;19390;51.460;5.710;2022-12-05T17:18:45;4.40;99.90
33023;DHT22;19390;51.460;5.710;2022-12-05T17:21:16;4.40;99.90
33023;DHT22;19390;51.460;5.710;2022-12-05T17:23:42;4.40;99.90
33023;DHT22;19390;51.460;5.710;2022-12-05T17:26:11;4.40;99.90
33023;DHT22;19390;51.460;5.710;2022-12-05T17:28:37;4.40;99.90
33023;DHT22;19390;51.460;5.710;2022-12-05T17:31:04;4.40;99.90
33023;DHT22;19390;51.460;5.710;2022-12-05T17:33:29;4.40;99.90
33023;DHT22;19390;51.460;5.710;2022-12-05T17:35:55;4.40;99.90
33023;DHT22;19390;51.460;5.710;2022-12-05T17:38:21;4.40;99.90
33023;DHT22;19390;51.460;5.710;2022-12-05T17:40:46;4.40;99.90
33023;DHT22;19390;51.460;5.710;2022-12-05T17:43:13;4.50;99.90
33023;DHT22;19390;51.460;5.710;2022-12-05T17:45:40;4.50;99.90
33023;DHT22;19390;51.460;5.710;2022-12-05T17:48:11;4.50;99.90
33023;DHT22;19390;51.460;5.710;2022-12-05T17:50:39;4.50;99.90
33023;DHT22;19390;51.460;5.710;2022-12-05T17:53:05;4.50;99.90
33023;DHT22;19390;51.460;5.710;2022-12-05T17:55:30;4.50;99.90
33023;DHT22;19390;51.460;5.710;2022-12-05T17:57:56;4.50;99.90
33023;DHT22;19390;51.460;5.710;2022-12-05T18:00:23;4.50;99.90
33023;DHT22;19390;51.460;5.710;2022-12-05T18:02:49;4.50;99.90
33023;DHT22;19390;51.460;5.710;2022-12-05T18:05:15;4.60;99.90
33023;DHT22;19390;51.460;5.710;2022-12-05T18:07:43;4.60;99.90
33023;DHT22;19390;51.460;5.710;2022-12-05T18:10:12;4.60;99.90
33023;DHT22;19390;51.460;5.710;2022-12-05T18:12:39;4.60;99.90
33023;DHT22;19390;51.460;5.710;2022-12-05T18:15:06;4.60;99.90
33023;DHT22;19390;51.460;5.710;2022-12-05T18:17:32;4.60;99.90
33023;DHT22;19390;51.460;5.710;2022-12-05T18:19:58;4.60;99.90
33023;DHT22;19390;51.460;5.710;2022-12-05T18:22:25;4.60;99.90
33023;DHT22;19390;51.460;5.710;2022-12-05T18:24:52;4.60;99.90
33023;DHT22;19390;51.460;5.710;2022-12-05T18:27:19;4.60;99.90
33023;DHT22;19390;51.460;5.710;2022-12-05T18:29:48;4.60;99.90
33023;DHT22;19390;51.460;5.710;2022-12-05T18:32:15;4.60;99.90
33023;DHT22;19390;51.460;5.710;2022-12-05T18:34:40;4.70;99.90
33023;DHT22;19390;51.460;5.710;2022-12-05T18:37:06;4.70;99.90
33023;DHT22;19390;51.460;5.710;2022-12-05T18:39:32;4.70;99.90
33023;DHT22;19390;51.460;5.710;2022-12-05T18:41:58;4.70;99.90
33023;DHT22;19390;51.460;5.710;2022-12-05T18:44:23;4.70;99.90
33023;DHT22;19390;51.460;5.710;2022-12-05T18:46:49;4.80;99.90
33023;DHT22;19390;51.460;5.710;2022-12-05T18:49:15;4.70;99.90